sensor_id;sensor_type;location;lat;lon;timestamp;P1;durP1;ratioP1;P2;durP2;ratioP2
11677;SDS011;5895;41.950;24.372;2023-10-09T00:01:42;5.05;;;2.58;;
11677;SDS011;5895;41.950;24.372;2023-10-09T00:04:11;7.18;;;2.72;;
11677;SDS011;5895;41.950;24.372;2023-10-09T00:06:39;13.25;;;3.13;;
11677;SDS011;5895;41.950;24.372;2023-10-09T00:09:08;9.60;;;2.40;;
11677;SDS011;5895;41.950;24.372;2023-10-09T00:11:44;11.23;;;2.83;;
11677;SDS011;5895;41.950;24.372;2023-10-09T00:14:13;8.07;;;2.63;;
11677;SDS011;5895;41.950;24.372;2023-10-09T00:16:40;9.90;;;2.85;;
11677;SDS011;5895;41.950;24.372;2023-10-09T00:19:12;10.77;;;3.00;;
11677;SDS011;5895;41.950;24.372;2023-10-09T00:21:42;10.55;;;3.10;;
11677;SDS011;5895;41.950;24.372;2023-10-09T00:24:11;8.60;;;3.00;;
11677;SDS011;5895;41.950;24.372;2023-10-09T00:26:50;8.50;;;2.80;;
11677;SDS011;5895;41.950;24.372;2023-10-09T00:29:20;9.38;;;2.90;;
11677;SDS011;5895;41.950;24.372;2023-10-09T00:31:49;12.20;;;3.10;;
11677;SDS011;5895;41.950;24.372;2023-10-09T00:34:20;5.53;;;2.70;;
11677;SDS011;5895;41.950;24.372;2023-10-09T00:36:51;10.98;;;3.20;;
11677;SDS011;5895;41.950;24.372;2023-10-09T00:39:19;10.23;;;3.03;;
11677;SDS011;5895;41.950;24.372;2023-10-09T00:42:08;11.45;;;2.90;;
11677;SDS011;5895;41.950;24.372;2023-10-09T00:44:40;10.13;;;3.00;;
11677;SDS011;5895;41.950;24.372;2023-10-09T00:47:08;8.57;;;3.50;;
11677;SDS011;5895;41.950;24.372;2023-10-09T00:49:48;9.70;;;3.03;;
11677;SDS011;5895;41.950;24.372;2023-10-09T00:52:20;11.27;;;3.22;;
11677;SDS011;5895;41.950;24.372;2023-10-09T00:54:57;9.95;;;2.63;;
11677;SDS011;5895;41.950;24.372;2023-10-09T00:57:35;7.35;;;2.60;;
11677;SDS011;5895;41.950;24.372;2023-10-09T01:00:06;9.13;;;3.30;;
11677;SDS011;5895;41.950;24.372;2023-10-09T01:02:51;10.25;;;3.70;;
11677;SDS011;5895;41.950;24.372;2023-10-09T01:05:35;10.95;;;3.58;;
11677;SDS011;5895;41.950;24.372;2023-10-09T01:08:10;9.50;;;3.38;;
11677;SDS011;5895;41.950;24.372;2023-10-09T01:10:48;11.00;;;3.47;;
11677;SDS011;5895;41.950;24.372;2023-10-09T01:13:20;13.27;;;3.55;;
11677;SDS011;5895;41.950;24.372;2023-10-09T01:15:52;11.50;;;3.78;;
11677;SDS011;5895;41.950;24.372;2023-10-09T01:18:23;8.57;;;3.50;;
11677;SDS011;5895;41.950;24.372;2023-10-09T01:21:01;9.57;;;3.20;;
11677;SDS011;5895;41.950;24.372;2023-10-09T01:23:30;8.88;;;3.45;;
11677;SDS011;5895;41.950;24.372;2023-10-09T01:25:57;9.77;;;3.53;;
11677;SDS011;5895;41.950;24.372;2023-10-09T01:28:24;14.02;;;3.55;;
11677;SDS011;5895;41.950;24.372;2023-10-09T01:30:54;10.95;;;3.67;;
11677;SDS011;5895;41.950;24.372;2023-10-09T01:33:21;10.38;;;3.33;;
11677;SDS011;5895;41.950;24.372;2023-10-09T01:35:49;11.10;;;3.88;;
11677;SDS011;5895;41.950;24.372;2023-10-09T01:38:23;9.05;;;3.35;;
11677;SDS011;5895;41.950;24.372;2023-10-09T01:41:07;9.25;;;3.22;;
11677;SDS011;5895;41.950;24.372;2023-10-09T01:43:41;12.65;;;4.18;;
11677;SDS011;5895;41.950;24.372;2023-10-09T01:46:10;9.85;;;3.80;;
11677;SDS011;5895;41.950;24.372;2023-10-09T01:48:41;9.65;;;3.35;;
11677;SDS011;5895;41.950;24.372;2023-10-09T01:51:13;14.75;;;3.80;;
11677;SDS011;5895;41.950;24.372;2023-10-09T01:53:42;10.30;;;3.53;;
11677;SDS011;5895;41.950;24.372;2023-10-09T01:56:11;9.60;;;3.10;;
11677;SDS011;5895;41.950;24.372;2023-10-09T01:58:41;6.75;;;3.15;;
11677;SDS011;5895;41.950;24.372;2023-10-09T02:01:11;9.40;;;3.75;;
11677;SDS011;5895;41.950;24.372;2023-10-09T02:03:39;10.15;;;3.55;;
11677;SDS011;5895;41.950;24.372;2023-10-09T02:06:08;11.07;;;4.55;;
11677;SDS011;5895;41.950;24.372;2023-10-09T02:08:49;10.07;;;4.50;;
11677;SDS011;5895;41.950;24.372;2023-10-09T02:11:18;10.90;;;5.18;;
11677;SDS011;5895;41.950;24.372;2023-10-09T02:13:50;13.60;;;5.10;;
11677;SDS011;5895;41.950;24.372;2023-10-09T02:16:22;11.00;;;4.88;;
11677;SDS011;5895;41.950;24.372;2023-10-09T02:18:54;9.60;;;3.75;;
11677;SDS011;5895;41.950;24.372;2023-10-09T02:21:24;10.02;;;4.18;;
11677;SDS011;5895;41.950;24.372;2023-10-09T02:24:05;10.93;;;4.20;;
11677;SDS011;5895;41.950;24.372;2023-10-09T02:26:53;10.52;;;3.35;;
11677;SDS011;5895;41.950;24.372;2023-10-09T02:29:32;10.30;;;3.97;;
11677;SDS011;5895;41.950;24.372;2023-10-09T02:32:00;14.10;;;4.10;;
11677;SDS011;5895;41.950;24.372;2023-10-09T02:34:38;11.65;;;4.70;;
11677;SDS011;5895;41.950;24.372;2023-10-09T02:37:11;17.38;;;4.47;;
11677;SDS011;5895;41.950;24.372;2023-10-09T02:39:39;12.23;;;5.35;;
11677;SDS011;5895;41.950;24.372;2023-10-09T02:42:14;12.45;;;5.72;;
11677;SDS011;5895;41.950;24.372;2023-10-09T02:44:51;14.02;;;6.32;;
11677;SDS011;5895;41.950;24.372;2023-10-09T02:47:18;17.15;;;6.78;;
11677;SDS011;5895;41.950;24.372;2023-10-09T02:49:50;15.63;;;7.40;;
11677;SDS011;5895;41.950;24.372;2023-10-09T02:52:17;16.90;;;7.55;;
11677;SDS011;5895;41.950;24.372;2023-10-09T02:54:50;15.25;;;5.80;;
11677;SDS011;5895;41.950;24.372;2023-10-09T02:57:27;15.15;;;5.80;;
11677;SDS011;5895;41.950;24.372;2023-10-09T03:00:02;11.23;;;5.40;;
11677;SDS011;5895;41.950;24.372;2023-10-09T03:02:33;14.13;;;6.05;;
11677;SDS011;5895;41.950;24.372;2023-10-09T03:05:05;14.70;;;4.43;;
11677;SDS011;5895;41.950;24.372;2023-10-09T03:07:37;12.77;;;4.55;;
11677;SDS011;5895;41.950;24.372;2023-10-09T03:10:05;12.00;;;4.60;;
11677;SDS011;5895;41.950;24.372;2023-10-09T03:12:36;7.68;;;4.13;;
11677;SDS011;5895;41.950;24.372;2023-10-09T03:15:05;9.88;;;4.57;;
11677;SDS011;5895;41.950;24.372;2023-10-09T03:17:34;12.00;;;4.22;;
11677;SDS011;5895;41.950;24.372;2023-10-09T03:20:04;10.15;;;3.88;;
11677;SDS011;5895;41.950;24.372;2023-10-09T03:22:37;12.23;;;4.15;;
11677;SDS011;5895;41.950;24.372;2023-10-09T03:25:05;6.57;;;4.15;;
11677;SDS011;5895;41.950;24.372;2023-10-09T03:27:38;13.63;;;5.05;;
11677;SDS011;5895;41.950;24.372;2023-10-09T03:30:11;11.18;;;4.47;;
11677;SDS011;5895;41.950;24.372;2023-10-09T03:32:43;7.50;;;3.70;;
11677;SDS011;5895;41.950;24.372;2023-10-09T03:35:15;7.15;;;3.60;;
11677;SDS011;5895;41.950;24.372;2023-10-09T03:37:49;8.90;;;3.70;;
11677;SDS011;5895;41.950;24.372;2023-10-09T03:40:18;7.03;;;3.65;;
11677;SDS011;5895;41.950;24.372;2023-10-09T03:42:48;8.40;;;4.47;;
11677;SDS011;5895;41.950;24.372;2023-10-09T03:45:15;9.95;;;4.13;;
11677;SDS011;5895;41.950;24.372;2023-10-09T03:47:53;11.68;;;4.15;;
11677;SDS011;5895;41.950;24.372;2023-10-09T03:50:28;9.10;;;4.97;;
11677;SDS011;5895;41.950;24.372;2023-10-09T03:53:03;13.23;;;5.68;;
11677;SDS011;5895;41.950;24.372;2023-10-09T03:55:34;10.25;;;4.60;;
11677;SDS011;5895;41.950;24.372;2023-10-09T03:58:05;12.32;;;4.85;;
11677;SDS011;5895;41.950;24.372;2023-10-09T04:00:32;12.07;;;4.40;;
11677;SDS011;5895;41.950;24.372;2023-10-09T04:03:10;9.32;;;3.88;;
11677;SDS011;5895;41.950;24.372;2023-10-09T04:05:39;10.25;;;3.85;;
11677;SDS011;5895;41.950;24.372;2023-10-09T04:08:09;9.55;;;3.75;;
11677;SDS011;5895;41.950;24.372;2023-10-09T04:10:45;16.23;;;4.30;;
11677;SDS011;5895;41.950;24.372;2023-10-09T04:13:20;8.43;;;3.97;;
11677;SDS011;5895;41.950;24.372;2023-10-09T04:15:57;11.98;;;4.25;;
11677;SDS011;5895;41.950;24.372;2023-10-09T04:18:27;13.23;;;4.60;;
11677;SDS011;5895;41.950;24.372;2023-10-09T04:20:58;8.77;;;5.00;;
11677;SDS011;5895;41.950;24.372;2023-10-09T04:23:44;11.05;;;4.82;;
11677;SDS011;5895;41.950;24.372;2023-10-09T04:26:35;13.32;;;5.43;;
11677;SDS011;5895;41.950;24.372;2023-10-09T04:29:06;13.20;;;5.88;;
11677;SDS011;5895;41.950;24.372;2023-10-09T04:31:35;14.93;;;6.78;;
11677;SDS011;5895;41.950;24.372;2023-10-09T04:34:03;11.48;;;5.82;;
11677;SDS011;5895;41.950;24.372;2023-10-09T04:36:54;10.13;;;5.65;;
11677;SDS011;5895;41.950;24.372;2023-10-09T04:39:26;14.60;;;4.95;;
11677;SDS011;5895;41.950;24.372;2023-10-09T04:42:12;7.30;;;3.95;;
11677;SDS011;5895;41.950;24.372;2023-10-09T04:44:53;13.95;;;4.05;;
11677;SDS011;5895;41.950;24.372;2023-10-09T04:47:37;7.38;;;4.22;;
11677;SDS011;5895;41.950;24.372;2023-10-09T04:50:14;8.73;;;3.42;;
11677;SDS011;5895;41.950;24.372;2023-10-09T04:52:56;11.65;;;4.13;;
11677;SDS011;5895;41.950;24.372;2023-10-09T04:55:43;9.73;;;4.20;;
11677;SDS011;5895;41.950;24.372;2023-10-09T04:58:19;14.07;;;3.90;;
11677;SDS011;5895;41.950;24.372;2023-10-09T05:00:52;7.38;;;4.00;;
11677;SDS011;5895;41.950;24.372;2023-10-09T05:03:37;12.80;;;4.00;;
11677;SDS011;5895;41.950;24.372;2023-10-09T05:06:11;7.95;;;3.85;;
11677;SDS011;5895;41.950;24.372;2023-10-09T05:09:07;9.88;;;3.75;;
11677;SDS011;5895;41.950;24.372;2023-10-09T05:11:38;11.02;;;3.63;;
11677;SDS011;5895;41.950;24.372;2023-10-09T05:14:25;8.63;;;3.85;;
11677;SDS011;5895;41.950;24.372;2023-10-09T05:17:06;10.95;;;3.75;;
11677;SDS011;5895;41.950;24.372;2023-10-09T05:19:41;8.38;;;3.35;;
11677;SDS011;5895;41.950;24.372;2023-10-09T05:22:10;4.25;;;3.28;;
11677;SDS011;5895;41.950;24.372;2023-10-09T05:24:55;7.72;;;3.50;;
11677;SDS011;5895;41.950;24.372;2023-10-09T05:27:23;6.43;;;3.72;;
11677;SDS011;5895;41.950;24.372;2023-10-09T05:30:04;9.65;;;3.20;;
11677;SDS011;5895;41.950;24.372;2023-10-09T05:32:50;7.30;;;3.70;;
11677;SDS011;5895;41.950;24.372;2023-10-09T05:35:21;6.13;;;2.90;;
11677;SDS011;5895;41.950;24.372;2023-10-09T05:37:55;5.22;;;3.33;;
11677;SDS011;5895;41.950;24.372;2023-10-09T05:40:27;5.07;;;3.05;;
11677;SDS011;5895;41.950;24.372;2023-10-09T05:42:56;5.47;;;2.70;;
11677;SDS011;5895;41.950;24.372;2023-10-09T05:45:28;7.38;;;3.20;;
11677;SDS011;5895;41.950;24.372;2023-10-09T05:48:14;6.03;;;2.70;;
11677;SDS011;5895;41.950;24.372;2023-10-09T05:50:58;9.82;;;3.30;;
11677;SDS011;5895;41.950;24.372;2023-10-09T05:53:44;6.38;;;2.95;;
11677;SDS011;5895;41.950;24.372;2023-10-09T05:56:29;6.03;;;2.90;;
11677;SDS011;5895;41.950;24.372;2023-10-09T05:59:13;6.57;;;3.15;;
11677;SDS011;5895;41.950;24.372;2023-10-09T06:01:58;7.65;;;3.03;;
11677;SDS011;5895;41.950;24.372;2023-10-09T06:05:05;4.55;;;2.70;;
11677;SDS011;5895;41.950;24.372;2023-10-09T06:07:51;5.82;;;2.55;;
11677;SDS011;5895;41.950;24.372;2023-10-09T06:10:32;6.15;;;2.97;;
11677;SDS011;5895;41.950;24.372;2023-10-09T06:13:05;6.28;;;2.78;;
11677;SDS011;5895;41.950;24.372;2023-10-09T06:15:54;7.47;;;2.78;;
11677;SDS011;5895;41.950;24.372;2023-10-09T06:18:45;3.55;;;2.65;;
11677;SDS011;5895;41.950;24.372;2023-10-09T06:21:21;9.35;;;2.67;;
11677;SDS011;5895;41.950;24.372;2023-10-09T06:24:08;7.72;;;4.88;;
11677;SDS011;5895;41.950;24.372;2023-10-09T06:26:44;10.35;;;4.95;;
11677;SDS011;5895;41.950;24.372;2023-10-09T06:29:37;6.57;;;3.83;;
11677;SDS011;5895;41.950;24.372;2023-10-09T06:32:16;9.13;;;4.00;;
11677;SDS011;5895;41.950;24.372;2023-10-09T06:35:00;6.28;;;3.53;;
11677;SDS011;5895;41.950;24.372;2023-10-09T06:37:45;9.32;;;3.55;;
11677;SDS011;5895;41.950;24.372;2023-10-09T06:40:31;10.93;;;4.03;;
11677;SDS011;5895;41.950;24.372;2023-10-09T06:43:16;9.95;;;5.20;;
11677;SDS011;5895;41.950;24.372;2023-10-09T06:45:53;10.57;;;5.88;;
11677;SDS011;5895;41.950;24.372;2023-10-09T06:48:23;6.85;;;4.85;;
11677;SDS011;5895;41.950;24.372;2023-10-09T06:51:10;7.57;;;4.10;;
11677;SDS011;5895;41.950;24.372;2023-10-09T06:54:03;8.68;;;6.22;;
11677;SDS011;5895;41.950;24.372;2023-10-09T06:56:32;8.98;;;3.97;;
11677;SDS011;5895;41.950;24.372;2023-10-09T06:59:13;11.02;;;3.95;;
11677;SDS011;5895;41.950;24.372;2023-10-09T07:01:47;16.38;;;4.50;;
11677;SDS011;5895;41.950;24.372;2023-10-09T07:04:33;5.93;;;3.42;;
11677;SDS011;5895;41.950;24.372;2023-10-09T07:07:20;12.57;;;5.30;;
11677;SDS011;5895;41.950;24.372;2023-10-09T07:09:51;14.57;;;4.05;;
11677;SDS011;5895;41.950;24.372;2023-10-09T07:12:36;6.32;;;4.85;;
11677;SDS011;5895;41.950;24.372;2023-10-09T07:15:09;7.65;;;4.00;;
11677;SDS011;5895;41.950;24.372;2023-10-09T07:17:56;9.07;;;4.10;;
11677;SDS011;5895;41.950;24.372;2023-10-09T07:20:43;6.70;;;4.40;;
11677;SDS011;5895;41.950;24.372;2023-10-09T07:23:24;7.15;;;3.70;;
11677;SDS011;5895;41.950;24.372;2023-10-09T07:26:02;8.95;;;3.83;;
11677;SDS011;5895;41.950;24.372;2023-10-09T07:28:44;5.43;;;2.92;;
11677;SDS011;5895;41.950;24.372;2023-10-09T07:31:16;5.43;;;3.00;;
11677;SDS011;5895;41.950;24.372;2023-10-09T07:33:52;7.05;;;3.03;;
11677;SDS011;5895;41.950;24.372;2023-10-09T07:36:32;11.75;;;3.40;;
11677;SDS011;5895;41.950;24.372;2023-10-09T07:39:04;14.32;;;5.40;;
11677;SDS011;5895;41.950;24.372;2023-10-09T07:41:49;8.85;;;3.95;;
11677;SDS011;5895;41.950;24.372;2023-10-09T07:44:27;12.52;;;4.18;;
11677;SDS011;5895;41.950;24.372;2023-10-09T07:47:03;13.70;;;4.60;;
11677;SDS011;5895;41.950;24.372;2023-10-09T07:49:42;6.60;;;4.70;;
11677;SDS011;5895;41.950;24.372;2023-10-09T07:52:14;6.43;;;3.40;;
11677;SDS011;5895;41.950;24.372;2023-10-09T07:54:42;4.60;;;3.60;;
11677;SDS011;5895;41.950;24.372;2023-10-09T07:57:17;6.60;;;3.20;;
11677;SDS011;5895;41.950;24.372;2023-10-09T07:59:50;3.78;;;3.08;;
11677;SDS011;5895;41.950;24.372;2023-10-09T08:02:27;6.88;;;2.75;;
11677;SDS011;5895;41.950;24.372;2023-10-09T08:04:59;7.97;;;2.58;;
11677;SDS011;5895;41.950;24.372;2023-10-09T08:07:44;7.43;;;4.18;;
11677;SDS011;5895;41.950;24.372;2023-10-09T08:10:22;5.10;;;3.28;;
11677;SDS011;5895;41.950;24.372;2023-10-09T08:13:08;5.00;;;2.60;;
11677;SDS011;5895;41.950;24.372;2023-10-09T08:16:01;3.90;;;2.50;;
11677;SDS011;5895;41.950;24.372;2023-10-09T08:18:30;4.43;;;3.08;;
11677;SDS011;5895;41.950;24.372;2023-10-09T08:20:57;9.63;;;3.20;;
11677;SDS011;5895;41.950;24.372;2023-10-09T08:23:41;4.50;;;3.95;;
11677;SDS011;5895;41.950;24.372;2023-10-09T08:26:18;9.30;;;7.72;;
11677;SDS011;5895;41.950;24.372;2023-10-09T08:28:55;4.18;;;2.75;;
11677;SDS011;5895;41.950;24.372;2023-10-09T08:31:39;3.38;;;2.40;;
11677;SDS011;5895;41.950;24.372;2023-10-09T08:34:11;4.35;;;3.10;;
11677;SDS011;5895;41.950;24.372;2023-10-09T08:36:49;6.97;;;2.85;;
11677;SDS011;5895;41.950;24.372;2023-10-09T08:39:19;5.85;;;3.50;;
11677;SDS011;5895;41.950;24.372;2023-10-09T08:41:52;6.13;;;3.08;;
11677;SDS011;5895;41.950;24.372;2023-10-09T08:44:24;5.13;;;2.80;;
11677;SDS011;5895;41.950;24.372;2023-10-09T08:46:56;4.95;;;2.50;;
11677;SDS011;5895;41.950;24.372;2023-10-09T08:49:24;5.07;;;2.85;;
11677;SDS011;5895;41.950;24.372;2023-10-09T08:51:52;4.18;;;2.40;;
11677;SDS011;5895;41.950;24.372;2023-10-09T08:54:20;4.47;;;2.42;;
11677;SDS011;5895;41.950;24.372;2023-10-09T08:56:47;2.30;;;2.10;;
11677;SDS011;5895;41.950;24.372;2023-10-09T08:59:17;6.43;;;2.60;;
11677;SDS011;5895;41.950;24.372;2023-10-09T09:01:46;5.15;;;3.15;;
11677;SDS011;5895;41.950;24.372;2023-10-09T09:07:03;7.22;;;2.78;;
11677;SDS011;5895;41.950;24.372;2023-10-09T09:09:32;3.97;;;2.22;;
11677;SDS011;5895;41.950;24.372;2023-10-09T09:11:59;3.65;;;2.60;;
11677;SDS011;5895;41.950;24.372;2023-10-09T09:14:36;6.25;;;2.35;;
11677;SDS011;5895;41.950;24.372;2023-10-09T09:17:05;7.40;;;3.25;;
11677;SDS011;5895;41.950;24.372;2023-10-09T09:19:36;23.17;;;5.05;;
11677;SDS011;5895;41.950;24.372;2023-10-09T09:22:04;10.00;;;4.28;;
11677;SDS011;5895;41.950;24.372;2023-10-09T09:24:40;8.30;;;5.80;;
11677;SDS011;5895;41.950;24.372;2023-10-09T09:27:28;8.00;;;5.85;;
11677;SDS011;5895;41.950;24.372;2023-10-09T09:30:22;7.72;;;4.72;;
11677;SDS011;5895;41.950;24.372;2023-10-09T09:32:52;11.73;;;5.88;;
11677;SDS011;5895;41.950;24.372;2023-10-09T09:35:32;3.83;;;2.35;;
11677;SDS011;5895;41.950;24.372;2023-10-09T09:37:59;3.05;;;2.75;;
11677;SDS011;5895;41.950;24.372;2023-10-09T09:40:31;2.80;;;2.50;;
11677;SDS011;5895;41.950;24.372;2023-10-09T09:56:10;5.28;;;2.83;;
11677;SDS011;5895;41.950;24.372;2023-10-09T09:58:43;6.88;;;3.20;;
11677;SDS011;5895;41.950;24.372;2023-10-09T10:01:32;4.00;;;2.25;;
11677;SDS011;5895;41.950;24.372;2023-10-09T10:04:07;3.80;;;3.33;;
11677;SDS011;5895;41.950;24.372;2023-10-09T10:06:39;3.50;;;3.00;;
11677;SDS011;5895;41.950;24.372;2023-10-09T10:09:22;4.55;;;2.55;;
11677;SDS011;5895;41.950;24.372;2023-10-09T10:12:04;7.20;;;2.38;;
11677;SDS011;5895;41.950;24.372;2023-10-09T10:17:22;7.25;;;4.38;;
11677;SDS011;5895;41.950;24.372;2023-10-09T10:20:00;7.07;;;5.15;;
11677;SDS011;5895;41.950;24.372;2023-10-09T10:22:50;6.13;;;4.75;;
11677;SDS011;5895;41.950;24.372;2023-10-09T10:28:17;7.03;;;2.95;;
11677;SDS011;5895;41.950;24.372;2023-10-09T10:31:07;3.08;;;2.30;;
11677;SDS011;5895;41.950;24.372;2023-10-09T10:36:33;4.03;;;2.50;;
11677;SDS011;5895;41.950;24.372;2023-10-09T10:39:00;4.57;;;2.70;;
11677;SDS011;5895;41.950;24.372;2023-10-09T10:41:34;5.28;;;2.10;;
11677;SDS011;5895;41.950;24.372;2023-10-09T10:44:16;3.10;;;2.33;;
11677;SDS011;5895;41.950;24.372;2023-10-09T10:47:04;5.43;;;2.72;;
11677;SDS011;5895;41.950;24.372;2023-10-09T10:49:47;2.92;;;2.20;;
11677;SDS011;5895;41.950;24.372;2023-10-09T10:52:23;9.68;;;5.43;;
11677;SDS011;5895;41.950;24.372;2023-10-09T10:55:07;11.00;;;7.32;;
11677;SDS011;5895;41.950;24.372;2023-10-09T10:58:14;5.60;;;3.10;;
11677;SDS011;5895;41.950;24.372;2023-10-09T11:00:51;7.88;;;2.95;;
11677;SDS011;5895;41.950;24.372;2023-10-09T11:03:36;6.95;;;5.00;;
11677;SDS011;5895;41.950;24.372;2023-10-09T11:06:24;7.07;;;4.95;;
11677;SDS011;5895;41.950;24.372;2023-10-09T11:09:02;6.82;;;3.08;;
11677;SDS011;5895;41.950;24.372;2023-10-09T11:11:46;5.85;;;2.92;;
11677;SDS011;5895;41.950;24.372;2023-10-09T11:14:15;8.68;;;4.57;;
11677;SDS011;5895;41.950;24.372;2023-10-09T11:16:48;4.47;;;2.67;;
11677;SDS011;5895;41.950;24.372;2023-10-09T11:19:19;5.03;;;3.78;;
11677;SDS011;5895;41.950;24.372;2023-10-09T11:22:04;5.63;;;3.33;;
11677;SDS011;5895;41.950;24.372;2023-10-09T11:24:55;3.95;;;2.55;;
11677;SDS011;5895;41.950;24.372;2023-10-09T11:27:36;4.25;;;2.50;;
11677;SDS011;5895;41.950;24.372;2023-10-09T11:30:05;7.07;;;3.40;;
11677;SDS011;5895;41.950;24.372;2023-10-09T11:32:36;7.13;;;3.58;;
11677;SDS011;5895;41.950;24.372;2023-10-09T11:35:11;6.07;;;2.80;;
11677;SDS011;5895;41.950;24.372;2023-10-09T11:37:42;7.88;;;3.47;;
11677;SDS011;5895;41.950;24.372;2023-10-09T11:42:59;5.93;;;2.78;;
11677;SDS011;5895;41.950;24.372;2023-10-09T11:45:28;6.85;;;2.80;;
11677;SDS011;5895;41.950;24.372;2023-10-09T11:48:15;5.18;;;2.80;;
11677;SDS011;5895;41.950;24.372;2023-10-09T11:50:46;6.75;;;2.92;;
11677;SDS011;5895;41.950;24.372;2023-10-09T11:53:21;6.22;;;3.25;;
11677;SDS011;5895;41.950;24.372;2023-10-09T11:56:01;4.30;;;2.80;;
11677;SDS011;5895;41.950;24.372;2023-10-09T11:58:28;8.48;;;3.17;;
11677;SDS011;5895;41.950;24.372;2023-10-09T12:00:56;6.22;;;3.42;;
11677;SDS011;5895;41.950;24.372;2023-10-09T12:03:25;3.97;;;2.53;;
11677;SDS011;5895;41.950;24.372;2023-10-09T12:05:57;5.88;;;2.75;;
11677;SDS011;5895;41.950;24.372;2023-10-09T12:08:29;10.20;;;2.65;;
11677;SDS011;5895;41.950;24.372;2023-10-09T12:10:57;6.82;;;2.75;;
11677;SDS011;5895;41.950;24.372;2023-10-09T12:13:27;3.97;;;3.22;;
11677;SDS011;5895;41.950;24.372;2023-10-09T12:15:54;4.63;;;3.10;;
11677;SDS011;5895;41.950;24.372;2023-10-09T12:18:23;7.22;;;3.35;;
11677;SDS011;5895;41.950;24.372;2023-10-09T12:20:50;5.88;;;2.90;;
11677;SDS011;5895;41.950;24.372;2023-10-09T12:23:18;6.30;;;3.45;;
11677;SDS011;5895;41.950;24.372;2023-10-09T12:25:47;5.50;;;3.40;;
11677;SDS011;5895;41.950;24.372;2023-10-09T12:28:15;10.75;;;3.15;;
11677;SDS011;5895;41.950;24.372;2023-10-09T12:30:46;10.35;;;2.95;;
11677;SDS011;5895;41.950;24.372;2023-10-09T12:33:16;6.07;;;3.25;;
11677;SDS011;5895;41.950;24.372;2023-10-09T12:35:45;5.53;;;3.08;;
11677;SDS011;5895;41.950;24.372;2023-10-09T12:38:12;4.15;;;2.72;;
11677;SDS011;5895;41.950;24.372;2023-10-09T12:40:44;8.85;;;4.75;;
11677;SDS011;5895;41.950;24.372;2023-10-09T12:43:17;7.32;;;3.85;;
11677;SDS011;5895;41.950;24.372;2023-10-09T12:45:45;3.70;;;3.17;;
11677;SDS011;5895;41.950;24.372;2023-10-09T12:48:13;4.63;;;3.00;;
11677;SDS011;5895;41.950;24.372;2023-10-09T12:50:40;3.83;;;2.72;;
11677;SDS011;5895;41.950;24.372;2023-10-09T12:53:09;7.80;;;3.50;;
11677;SDS011;5895;41.950;24.372;2023-10-09T12:55:38;7.18;;;3.30;;
11677;SDS011;5895;41.950;24.372;2023-10-09T12:58:07;7.10;;;3.00;;
11677;SDS011;5895;41.950;24.372;2023-10-09T13:00:35;3.75;;;2.22;;
11677;SDS011;5895;41.950;24.372;2023-10-09T13:03:10;4.93;;;2.75;;
11677;SDS011;5895;41.950;24.372;2023-10-09T13:05:43;7.60;;;2.60;;
11677;SDS011;5895;41.950;24.372;2023-10-09T13:08:18;7.82;;;3.00;;
11677;SDS011;5895;41.950;24.372;2023-10-09T13:10:48;10.93;;;2.78;;
11677;SDS011;5895;41.950;24.372;2023-10-09T13:13:24;7.88;;;3.40;;
11677;SDS011;5895;41.950;24.372;2023-10-09T13:16:02;5.80;;;2.80;;
11677;SDS011;5895;41.950;24.372;2023-10-09T13:18:33;5.75;;;2.70;;
11677;SDS011;5895;41.950;24.372;2023-10-09T13:21:00;5.15;;;2.83;;
11677;SDS011;5895;41.950;24.372;2023-10-09T13:23:29;8.85;;;2.83;;
11677;SDS011;5895;41.950;24.372;2023-10-09T13:26:04;8.43;;;3.60;;
11677;SDS011;5895;41.950;24.372;2023-10-09T13:28:43;5.18;;;3.05;;
11677;SDS011;5895;41.950;24.372;2023-10-09T13:31:13;4.72;;;2.90;;
11677;SDS011;5895;41.950;24.372;2023-10-09T13:33:42;8.40;;;3.08;;
11677;SDS011;5895;41.950;24.372;2023-10-09T13:36:10;5.38;;;3.00;;
11677;SDS011;5895;41.950;24.372;2023-10-09T13:38:44;20.48;;;3.67;;
11677;SDS011;5895;41.950;24.372;2023-10-09T13:41:12;5.50;;;3.05;;
11677;SDS011;5895;41.950;24.372;2023-10-09T13:43:43;5.13;;;2.50;;
11677;SDS011;5895;41.950;24.372;2023-10-09T13:46:10;6.50;;;2.88;;
11677;SDS011;5895;41.950;24.372;2023-10-09T13:48:39;4.13;;;2.78;;
11677;SDS011;5895;41.950;24.372;2023-10-09T13:51:10;6.28;;;3.00;;
11677;SDS011;5895;41.950;24.372;2023-10-09T13:53:42;6.45;;;3.00;;
11677;SDS011;5895;41.950;24.372;2023-10-09T13:56:14;7.32;;;2.88;;
11677;SDS011;5895;41.950;24.372;2023-10-09T13:58:44;5.40;;;2.40;;
11677;SDS011;5895;41.950;24.372;2023-10-09T14:01:12;6.80;;;2.85;;
11677;SDS011;5895;41.950;24.372;2023-10-09T14:03:52;7.15;;;2.90;;
11677;SDS011;5895;41.950;24.372;2023-10-09T14:06:21;4.85;;;2.95;;
11677;SDS011;5895;41.950;24.372;2023-10-09T14:08:56;6.28;;;3.00;;
11677;SDS011;5895;41.950;24.372;2023-10-09T14:11:24;4.38;;;2.83;;
11677;SDS011;5895;41.950;24.372;2023-10-09T14:13:51;4.90;;;3.03;;
11677;SDS011;5895;41.950;24.372;2023-10-09T14:16:18;8.82;;;3.28;;
11677;SDS011;5895;41.950;24.372;2023-10-09T14:18:56;6.45;;;2.75;;
11677;SDS011;5895;41.950;24.372;2023-10-09T14:21:26;8.85;;;3.28;;
11677;SDS011;5895;41.950;24.372;2023-10-09T14:23:55;9.38;;;3.30;;
11677;SDS011;5895;41.950;24.372;2023-10-09T14:26:26;5.93;;;3.60;;
11677;SDS011;5895;41.950;24.372;2023-10-09T14:28:54;7.57;;;3.78;;
11677;SDS011;5895;41.950;24.372;2023-10-09T14:31:23;7.22;;;3.85;;
11677;SDS011;5895;41.950;24.372;2023-10-09T14:33:54;8.73;;;3.17;;
11677;SDS011;5895;41.950;24.372;2023-10-09T14:36:22;4.82;;;3.53;;
11677;SDS011;5895;41.950;24.372;2023-10-09T14:38:52;10.05;;;3.90;;
11677;SDS011;5895;41.950;24.372;2023-10-09T14:41:20;8.38;;;3.65;;
11677;SDS011;5895;41.950;24.372;2023-10-09T14:43:49;5.63;;;3.20;;
11677;SDS011;5895;41.950;24.372;2023-10-09T14:46:17;11.13;;;7.53;;
11677;SDS011;5895;41.950;24.372;2023-10-09T14:48:49;5.38;;;4.00;;
11677;SDS011;5895;41.950;24.372;2023-10-09T14:51:18;10.57;;;4.32;;
11677;SDS011;5895;41.950;24.372;2023-10-09T14:53:53;8.95;;;4.03;;
11677;SDS011;5895;41.950;24.372;2023-10-09T14:56:23;7.00;;;4.35;;
11677;SDS011;5895;41.950;24.372;2023-10-09T14:58:54;8.05;;;3.08;;
11677;SDS011;5895;41.950;24.372;2023-10-09T15:01:23;5.50;;;3.58;;
11677;SDS011;5895;41.950;24.372;2023-10-09T15:03:54;8.45;;;3.15;;
11677;SDS011;5895;41.950;24.372;2023-10-09T15:06:23;6.20;;;2.90;;
11677;SDS011;5895;41.950;24.372;2023-10-09T15:08:54;5.80;;;2.80;;
11677;SDS011;5895;41.950;24.372;2023-10-09T15:11:22;6.25;;;3.38;;
11677;SDS011;5895;41.950;24.372;2023-10-09T15:13:50;9.90;;;3.38;;
11677;SDS011;5895;41.950;24.372;2023-10-09T15:16:18;5.18;;;3.83;;
11677;SDS011;5895;41.950;24.372;2023-10-09T15:18:47;11.27;;;5.57;;
11677;SDS011;5895;41.950;24.372;2023-10-09T15:21:17;11.63;;;4.95;;
11677;SDS011;5895;41.950;24.372;2023-10-09T15:23:48;10.70;;;5.03;;
11677;SDS011;5895;41.950;24.372;2023-10-09T15:26:17;8.20;;;4.70;;
11677;SDS011;5895;41.950;24.372;2023-10-09T15:28:45;9.27;;;4.57;;
11677;SDS011;5895;41.950;24.372;2023-10-09T15:31:12;10.77;;;4.28;;
11677;SDS011;5895;41.950;24.372;2023-10-09T15:33:41;9.27;;;4.63;;
11677;SDS011;5895;41.950;24.372;2023-10-09T15:36:09;12.93;;;5.32;;
11677;SDS011;5895;41.950;24.372;2023-10-09T15:38:37;10.38;;;4.93;;
11677;SDS011;5895;41.950;24.372;2023-10-09T15:41:04;10.43;;;6.00;;
11677;SDS011;5895;41.950;24.372;2023-10-09T15:43:33;31.15;;;11.40;;
11677;SDS011;5895;41.950;24.372;2023-10-09T15:46:02;10.30;;;6.78;;
11677;SDS011;5895;41.950;24.372;2023-10-09T15:48:29;17.58;;;9.23;;
11677;SDS011;5895;41.950;24.372;2023-10-09T15:50:58;11.45;;;5.80;;
11677;SDS011;5895;41.950;24.372;2023-10-09T15:53:25;9.68;;;5.32;;